Morgantown Municipal Walter L. Bill Hart Field
KMGW : now visible

Airfield :











YOU CAN JOIN US ON...

 
LOGIN :

Register | Disclaimer

   EN    FR    IT 

 









Legend :    VFR   Marginal VFR   IFR   Intensive IFR   Very Intensive IFR
Visi :
Ceiling :
>= 8 km
>= 3000ft
5 to 8 km
1000 to 3000 ft
1500m to 5 km
500 to 1000 ft
800 to 1500m
200 to 500 ft
< 800m
< 200 ft
Symbols :   Thunderstorms  Fog  Heavy snow  Heavy precipitations  Wind > 20 kt






- Airport Elevation : 1248 ft
- IATA code : MGW


KMGW - Morgantown Municipal Walter L. Bill Hart Field

CURRENT METAR :
  • 192345Z 00000KT 6SM BR BKN024 BKN038 OVC045 04/03 A2989 RMK AO2 T00440033

EXPIRED METARs :
  • 192253Z 00000KT 7SM OVC037 05/03 A2987 RMK AO2 RAE2156 SLP123 P0000 T00500033
  • 192235Z 15003KT 5SM BR OVC031 05/03 A2987 RMK AO2 RAE2156 P0000 T00500033
  • 192153Z 22003KT 4SM -RA BR BKN016 BKN022 OVC036 06/03 A2986 RMK AO2 RAB06 SLP119 P0000 T00560033
  • 192053Z 00000KT 4SM HZ OVC026 07/03 A2984 RMK AO2 SLP113 T00670028 53006

TAF KMGW
Valid from the 20 at 00:00 until the 21 at 00:00 UTC


192320Z 2000/2024 VRB03KT P6SM OVC035
FM200700 28002KT 2SM BR BKN035
TEMPO 2008/2012 1/2SM FG BKN004
FM201300 27005KT 6SM BR BKN008
FM201700 31006KT P6SM BKN025



MET'MAP, your aeronautical weather chart ! - Copyright ORBIFLY December 2007 - Disclaimer

ORBIFLY MET'MAP TEAM :

Programming & Development : Alexandra Zaïnal
Concept & Development : Baudouin d'Aumeries
Co-Development & Prog : Marc-Olivier Méhu
Technical & hardware support : Manuel Goepfert

Contact : metmap@orbifly.com




SOURCES & CREDITS :

   NOAA       Earth
Advisory